Euro IV — IQNH — position and weather

sailwx.info

Track history (hours):
 
Tides and Currents Weather Stations Pressure Air Temp Water Temp Dewpoint Dewpoint Depression Visibility Wind Speed Wind Dir Waves Ship Positions

Euro IV

Last reported at 2017-Oct-17 14:17 UTC. Time now 2017-Oct-17 22:40 UTC.
Position N 44°06' E 009°50'.

Length 25 m; draft 1.3 m.

Type: Passenger vessel. MMSI: 247131500.

Date/timePositionNaut miles runAvg speedWind from/ knotsBaromVisibWave heightAir tempDewpointWater temp
2017-Oct-17 14:17N 44°06' E 009°50'3 9.9
2017-Oct-17 14:00N 44°03' E 009°51'2 3.7
2017-Oct-17 13:30N 44°02' E 009°51'2 3.2
2017-Oct-17 13:00N 44°03' E 009°50'0 0.0
2017-Oct-17 12:30N 44°03' E 009°50'0 0.0
2017-Oct-17 12:00N 44°03' E 009°50'0 0.0
2017-Oct-17 11:30N 44°03' E 009°50'0 0.5
2017-Oct-17 10:57N 44°03' E 009°50'6 9.2
2017-Oct-17 10:21N 44°06' E 009°43'3 5.8
2017-Oct-17 09:48N 44°08' E 009°40'0 0.6
2017-Oct-17 09:25N 44°08' E 009°40'3 6.9
2017-Oct-17 09:00N 44°06' E 009°43'1 1.9
2017-Oct-17 08:30N 44°05' E 009°44'510.4
2017-Oct-17 08:01N 44°03' E 009°50'3 5.7
2017-Oct-17 07:30N 44°06' E 009°50'1 1.5
2017-Oct-17 07:00N 44°05' E 009°50'2 0.1
2017-Oct-16 16:04N 44°03' E 009°51'110.0
2017-Oct-16 16:00N 44°04' E 009°52'0 0.5
2017-Oct-16 15:30N 44°04' E 009°52'1 2.3
2017-Oct-16 15:00N 44°03' E 009°50'5 5.2
2017-Oct-16 14:01N 44°06' E 009°44'2 3.1
2017-Oct-16 13:30N 44°07' E 009°42'3 5.8
2017-Oct-16 13:00N 44°09' E 009°39'0 0.0
2017-Oct-16 12:30N 44°09' E 009°39'0 0.0
2017-Oct-16 12:00N 44°09' E 009°39'0 0.0
2017-Oct-16 11:30N 44°09' E 009°39'4 5.6
2017-Oct-16 10:48N 44°06' E 009°43'1 3.0
2017-Oct-16 10:26N 44°05' E 009°44'511.1
2017-Oct-16 10:00N 44°03' E 009°50'2 3.6
2017-Oct-16 09:30N 44°05' E 009°51'2 3.0
2017-Oct-16 09:00N 44°06' E 009°50'0 0.0
2017-Oct-16 08:30N 44°06' E 009°50'0 0.1
2017-Oct-16 08:00N 44°06' E 009°50'0 0.0
2017-Oct-16 06:56N 44°06' E 009°50'0 0.0
2017-Oct-15 16:11N 44°06' E 009°50'1 5.3
2017-Oct-15 16:00N 44°06' E 009°51'2 4.4
2017-Oct-15 15:30N 44°04' E 009°52'2 3.2
2017-Oct-15 14:57N 44°03' E 009°50'3 3.3
2017-Oct-15 14:00N 44°06' E 009°50'0 0.0
2017-Oct-15 13:30N 44°06' E 009°50'2 4.8
2017-Oct-15 13:00N 44°04' E 009°51'1 1.3
2017-Oct-15 12:30N 44°05' E 009°51'2 3.4
2017-Oct-15 12:00N 44°06' E 009°50'0 0.0
2017-Oct-15 11:29N 44°06' E 009°50'0 0.0
2017-Oct-15 11:00N 44°06' E 009°50'0 0.0
2017-Oct-15 10:30N 44°06' E 009°50'0 0.0
2017-Oct-15 10:00N 44°06' E 009°50'0 0.0
2017-Oct-15 09:30N 44°06' E 009°50'1 1.6
2017-Oct-15 09:00N 44°06' E 009°50'3 5.2
2017-Oct-15 08:30N 44°03' E 009°50'0 0.0
2017-Oct-15 08:00N 44°03' E 009°50'3 6.8
2017-Oct-15 07:30N 44°04' E 009°55'3 5.8
2017-Oct-15 07:00N 44°06' E 009°51'1 0.1
2017-Oct-14 13:35N 44°06' E 009°50'0 0.7
2017-Oct-14 13:30N 44°06' E 009°50'3 5.8
2017-Oct-14 13:00N 44°03' E 009°51'2 3.5
2017-Oct-14 12:30N 44°05' E 009°51'1 2.6
2017-Oct-14 12:00N 44°06' E 009°50'0 0.0
2017-Oct-14 11:30N 44°06' E 009°50'0 0.0
2017-Oct-14 10:56N 44°06' E 009°50'0 0.0
2017-Oct-14 10:30N 44°06' E 009°50'0 1.0
2017-Oct-14 10:00N 44°06' E 009°50'0 0.0
2017-Oct-14 09:27N 44°06' E 009°50'3 6.5
2017-Oct-14 09:00N 44°03' E 009°50'811.3
2017-Oct-14 08:16N 44°08' E 009°41'414.4
2017-Oct-14 08:00N 44°05' E 009°44'5 9.7
2017-Oct-14 07:30N 44°04' E 009°51'2 4.0
2017-Oct-14 07:01N 44°06' E 009°50'0 0.0
2017-Oct-13 14:35N 44°06' E 009°50'0 1.6
2017-Oct-13 14:27N 44°06' E 009°50'3 7.3
2017-Oct-13 14:00N 44°03' E 009°51'1 1.1
2017-Oct-13 13:29N 44°03' E 009°50'0 0.0
2017-Oct-13 13:00N 44°03' E 009°50'0 0.0
2017-Oct-13 12:30N 44°03' E 009°50'0 0.0
2017-Oct-13 12:00N 44°03' E 009°50'0 0.7
2017-Oct-13 11:30N 44°03' E 009°51'4 7.8
2017-Oct-13 11:00N 44°04' E 009°46'612.4
2017-Oct-13 10:30N 44°09' E 009°39'0 0.0
2017-Oct-13 10:00N 44°09' E 009°39'1 1.8
2017-Oct-13 09:18N 44°08' E 009°41'0 0.6
2017-Oct-13 09:00N 44°08' E 009°41'3 6.2
2017-Oct-13 08:30N 44°06' E 009°43'611.0
2017-Oct-13 08:00N 44°04' E 009°51'2 4.0
2017-Oct-13 07:30N 44°06' E 009°50'0 0.1
2017-Oct-13 07:00N 44°06' E 009°50'0 0.0
2017-Oct-12 16:07N 44°06' E 009°50'1 4.2
2017-Oct-12 15:58N 44°06' E 009°50'3 5.0
2017-Oct-12 15:27N 44°03' E 009°51'1 1.9
2017-Oct-12 15:00N 44°03' E 009°50'0 0.0
2017-Oct-12 14:30N 44°03' E 009°50'0 0.0
2017-Oct-12 14:00N 44°03' E 009°50'3 0.5
2017-Oct-12 07:32N 44°06' E 009°50'0 0.0
2017-Oct-12 07:31N 44°06' E 009°50'0 0.6
2017-Oct-12 06:57N 44°06' E 009°50'0 0.0
2017-Oct-10 14:43N 44°06' E 009°50'3 4.3
2017-Oct-10 14:00N 44°03' E 009°50'0 0.0
2017-Oct-10 13:30N 44°03' E 009°50'0 0.0
2017-Oct-10 13:00N 44°03' E 009°50'0 0.0
2017-Oct-10 12:30N 44°03' E 009°50'0 0.0
2017-Oct-10 12:00N 44°03' E 009°50'0 0.0
2017-Oct-10 11:30N 44°03' E 009°50'5 9.2
2017-Oct-10 10:56N 44°06' E 009°44'3 7.3
2017-Oct-10 10:30N 44°08' E 009°41'1 2.5
2017-Oct-10 10:00N 44°09' E 009°39'1 2.4
2017-Oct-10 09:27N 44°08' E 009°41'3 4.9
2017-Oct-10 08:49N 44°06' E 009°44'412.5
2017-Oct-10 08:30N 44°03' E 009°48'3 5.8
2017-Oct-10 08:00N 44°06' E 009°50'0 0.0
2017-Oct-10 07:28N 44°06' E 009°50'0 0.0
2017-Oct-09 15:25N 44°06' E 009°50'3 7.6
2017-Oct-09 15:00N 44°03' E 009°50'510.0
2017-Oct-09 14:29N 44°06' E 009°44'4 9.0
2017-Oct-09 14:00N 44°09' E 009°39'4 8.7
2017-Oct-09 13:31N 44°06' E 009°43'611.6
2017-Oct-09 13:01N 44°04' E 009°51'2 4.3
2017-Oct-09 12:30N 44°06' E 009°50'0 0.0
2017-Oct-09 12:00N 44°06' E 009°50'1 1.1
2017-Oct-09 11:30N 44°06' E 009°50'3 6.5
2017-Oct-09 11:00N 44°03' E 009°50'0 0.0
2017-Oct-09 10:30N 44°03' E 009°50'0 0.0
2017-Oct-09 10:00N 44°03' E 009°50'612.2
2017-Oct-09 09:30N 44°06' E 009°43'4 7.2
2017-Oct-09 09:00N 44°09' E 009°39'0 0.0
2017-Oct-09 08:30N 44°09' E 009°39'0 0.0
2017-Oct-09 07:59N 44°09' E 009°39'3 5.9
2017-Oct-09 07:29N 44°07' E 009°42'712.2
2017-Oct-09 06:56N 44°03' E 009°50'3 6.8
2017-Oct-09 06:28N 44°06' E 009°50'1 0.0
2017-Oct-08 13:28N 44°06' E 009°50'3 6.6
2017-Oct-08 13:00N 44°03' E 009°51'1 2.2
2017-Oct-08 12:30N 44°04' E 009°51'2 4.2
2017-Oct-08 12:00N 44°06' E 009°50'0 0.0
2017-Oct-08 11:30N 44°06' E 009°50'0 0.0
2017-Oct-08 10:59N 44°06' E 009°50'0 0.0
2017-Oct-08 10:30N 44°06' E 009°50'0 0.0
2017-Oct-08 10:00N 44°06' E 009°50'0 0.0
2017-Oct-08 09:30N 44°06' E 009°50'3 6.3
2017-Oct-08 09:00N 44°03' E 009°50'1 2.2
2017-Oct-08 08:30N 44°04' E 009°51'2 4.9
2017-Oct-08 08:00N 44°06' E 009°50'  
Track history (hours):
 
Tides and Currents Weather Stations Pressure Air Temp Water Temp Dewpoint Dewpoint Depression Visibility Wind Speed Wind Dir Waves Ship Positions

Euro IV

Last reported at 2017-Oct-17 14:17 UTC. Time now 2017-Oct-17 22:40 UTC.
Position N 44°06' E 009°50'.

Length 25 m; draft 1.3 m.

Type: Passenger vessel. MMSI: 247131500.

Date/timePositionNaut miles runAvg speedWind from/ knotsBaromVisibWave heightAir tempDewpointWater temp
2017-Oct-17 14:17N 44°06' E 009°50'3 9.9
2017-Oct-17 14:00N 44°03' E 009°51'2 3.7
2017-Oct-17 13:30N 44°02' E 009°51'2 3.2
2017-Oct-17 13:00N 44°03' E 009°50'0 0.0
2017-Oct-17 12:30N 44°03' E 009°50'0 0.0
2017-Oct-17 12:00N 44°03' E 009°50'0 0.0
2017-Oct-17 11:30N 44°03' E 009°50'0 0.5
2017-Oct-17 10:57N 44°03' E 009°50'6 9.2
2017-Oct-17 10:21N 44°06' E 009°43'3 5.8
2017-Oct-17 09:48N 44°08' E 009°40'0 0.6
2017-Oct-17 09:25N 44°08' E 009°40'3 6.9
2017-Oct-17 09:00N 44°06' E 009°43'1 1.9
2017-Oct-17 08:30N 44°05' E 009°44'510.4
2017-Oct-17 08:01N 44°03' E 009°50'3 5.7
2017-Oct-17 07:30N 44°06' E 009°50'1 1.5
2017-Oct-17 07:00N 44°05' E 009°50'2 0.1
2017-Oct-16 16:04N 44°03' E 009°51'110.0
2017-Oct-16 16:00N 44°04' E 009°52'0 0.5
2017-Oct-16 15:30N 44°04' E 009°52'1 2.3
2017-Oct-16 15:00N 44°03' E 009°50'5 5.2
2017-Oct-16 14:01N 44°06' E 009°44'2 3.1
2017-Oct-16 13:30N 44°07' E 009°42'3 5.8
2017-Oct-16 13:00N 44°09' E 009°39'0 0.0
2017-Oct-16 12:30N 44°09' E 009°39'0 0.0
2017-Oct-16 12:00N 44°09' E 009°39'0 0.0
2017-Oct-16 11:30N 44°09' E 009°39'4 5.6
2017-Oct-16 10:48N 44°06' E 009°43'1 3.0
2017-Oct-16 10:26N 44°05' E 009°44'511.1
2017-Oct-16 10:00N 44°03' E 009°50'2 3.6
2017-Oct-16 09:30N 44°05' E 009°51'2 3.0
2017-Oct-16 09:00N 44°06' E 009°50'0 0.0
2017-Oct-16 08:30N 44°06' E 009°50'0 0.1
2017-Oct-16 08:00N 44°06' E 009°50'0 0.0
2017-Oct-16 06:56N 44°06' E 009°50'0 0.0
2017-Oct-15 16:11N 44°06' E 009°50'1 5.3
2017-Oct-15 16:00N 44°06' E 009°51'2 4.4
2017-Oct-15 15:30N 44°04' E 009°52'2 3.2
2017-Oct-15 14:57N 44°03' E 009°50'3 3.3
2017-Oct-15 14:00N 44°06' E 009°50'0 0.0
2017-Oct-15 13:30N 44°06' E 009°50'2 4.8
2017-Oct-15 13:00N 44°04' E 009°51'1 1.3
2017-Oct-15 12:30N 44°05' E 009°51'2 3.4
2017-Oct-15 12:00N 44°06' E 009°50'0 0.0
2017-Oct-15 11:29N 44°06' E 009°50'0 0.0
2017-Oct-15 11:00N 44°06' E 009°50'0 0.0
2017-Oct-15 10:30N 44°06' E 009°50'0 0.0
2017-Oct-15 10:00N 44°06' E 009°50'0 0.0
2017-Oct-15 09:30N 44°06' E 009°50'1 1.6
2017-Oct-15 09:00N 44°06' E 009°50'3 5.2
2017-Oct-15 08:30N 44°03' E 009°50'0 0.0
2017-Oct-15 08:00N 44°03' E 009°50'3 6.8
2017-Oct-15 07:30N 44°04' E 009°55'3 5.8
2017-Oct-15 07:00N 44°06' E 009°51'1 0.1
2017-Oct-14 13:35N 44°06' E 009°50'0 0.7
2017-Oct-14 13:30N 44°06' E 009°50'3 5.8
2017-Oct-14 13:00N 44°03' E 009°51'2 3.5
2017-Oct-14 12:30N 44°05' E 009°51'1 2.6
2017-Oct-14 12:00N 44°06' E 009°50'0 0.0
2017-Oct-14 11:30N 44°06' E 009°50'0 0.0
2017-Oct-14 10:56N 44°06' E 009°50'0 0.0
2017-Oct-14 10:30N 44°06' E 009°50'0 1.0
2017-Oct-14 10:00N 44°06' E 009°50'0 0.0
2017-Oct-14 09:27N 44°06' E 009°50'3 6.5
2017-Oct-14 09:00N 44°03' E 009°50'811.3
2017-Oct-14 08:16N 44°08' E 009°41'414.4
2017-Oct-14 08:00N 44°05' E 009°44'5 9.7
2017-Oct-14 07:30N 44°04' E 009°51'2 4.0
2017-Oct-14 07:01N 44°06' E 009°50'0 0.0
2017-Oct-13 14:35N 44°06' E 009°50'0 1.6
2017-Oct-13 14:27N 44°06' E 009°50'3 7.3
2017-Oct-13 14:00N 44°03' E 009°51'1 1.1
2017-Oct-13 13:29N 44°03' E 009°50'0 0.0
2017-Oct-13 13:00N 44°03' E 009°50'0 0.0
2017-Oct-13 12:30N 44°03' E 009°50'0 0.0
2017-Oct-13 12:00N 44°03' E 009°50'0 0.7
2017-Oct-13 11:30N 44°03' E 009°51'4 7.8
2017-Oct-13 11:00N 44°04' E 009°46'612.4
2017-Oct-13 10:30N 44°09' E 009°39'0 0.0
2017-Oct-13 10:00N 44°09' E 009°39'1 1.8
2017-Oct-13 09:18N 44°08' E 009°41'0 0.6
2017-Oct-13 09:00N 44°08' E 009°41'3 6.2
2017-Oct-13 08:30N 44°06' E 009°43'611.0
2017-Oct-13 08:00N 44°04' E 009°51'2 4.0
2017-Oct-13 07:30N 44°06' E 009°50'0 0.1
2017-Oct-13 07:00N 44°06' E 009°50'0 0.0
2017-Oct-12 16:07N 44°06' E 009°50'1 4.2
2017-Oct-12 15:58N 44°06' E 009°50'3 5.0
2017-Oct-12 15:27N 44°03' E 009°51'1 1.9
2017-Oct-12 15:00N 44°03' E 009°50'0 0.0
2017-Oct-12 14:30N 44°03' E 009°50'0 0.0
2017-Oct-12 14:00N 44°03' E 009°50'3 0.5
2017-Oct-12 07:32N 44°06' E 009°50'0 0.0
2017-Oct-12 07:31N 44°06' E 009°50'0 0.6
2017-Oct-12 06:57N 44°06' E 009°50'0 0.0
2017-Oct-10 14:43N 44°06' E 009°50'3 4.3
2017-Oct-10 14:00N 44°03' E 009°50'0 0.0
2017-Oct-10 13:30N 44°03' E 009°50'0 0.0
2017-Oct-10 13:00N 44°03' E 009°50'0 0.0
2017-Oct-10 12:30N 44°03' E 009°50'0 0.0
2017-Oct-10 12:00N 44°03' E 009°50'0 0.0
2017-Oct-10 11:30N 44°03' E 009°50'5 9.2
2017-Oct-10 10:56N 44°06' E 009°44'3 7.3
2017-Oct-10 10:30N 44°08' E 009°41'1 2.5
2017-Oct-10 10:00N 44°09' E 009°39'1 2.4
2017-Oct-10 09:27N 44°08' E 009°41'3 4.9
2017-Oct-10 08:49N 44°06' E 009°44'412.5
2017-Oct-10 08:30N 44°03' E 009°48'3 5.8
2017-Oct-10 08:00N 44°06' E 009°50'0 0.0
2017-Oct-10 07:28N 44°06' E 009°50'0 0.0
2017-Oct-09 15:25N 44°06' E 009°50'3 7.6
2017-Oct-09 15:00N 44°03' E 009°50'510.0
2017-Oct-09 14:29N 44°06' E 009°44'4 9.0
2017-Oct-09 14:00N 44°09' E 009°39'4 8.7
2017-Oct-09 13:31N 44°06' E 009°43'611.6
2017-Oct-09 13:01N 44°04' E 009°51'2 4.3
2017-Oct-09 12:30N 44°06' E 009°50'0 0.0
2017-Oct-09 12:00N 44°06' E 009°50'1 1.1
2017-Oct-09 11:30N 44°06' E 009°50'3 6.5
2017-Oct-09 11:00N 44°03' E 009°50'0 0.0
2017-Oct-09 10:30N 44°03' E 009°50'0 0.0
2017-Oct-09 10:00N 44°03' E 009°50'612.2
2017-Oct-09 09:30N 44°06' E 009°43'4 7.2
2017-Oct-09 09:00N 44°09' E 009°39'0 0.0
2017-Oct-09 08:30N 44°09' E 009°39'0 0.0
2017-Oct-09 07:59N 44°09' E 009°39'3 5.9
2017-Oct-09 07:29N 44°07' E 009°42'712.2
2017-Oct-09 06:56N 44°03' E 009°50'3 6.8
2017-Oct-09 06:28N 44°06' E 009°50'1 0.0
2017-Oct-08 13:28N 44°06' E 009°50'3 6.6
2017-Oct-08 13:00N 44°03' E 009°51'1 2.2
2017-Oct-08 12:30N 44°04' E 009°51'2 4.2
2017-Oct-08 12:00N 44°06' E 009°50'0 0.0
2017-Oct-08 11:30N 44°06' E 009°50'0 0.0
2017-Oct-08 10:59N 44°06' E 009°50'0 0.0
2017-Oct-08 10:30N 44°06' E 009°50'0 0.0
2017-Oct-08 10:00N 44°06' E 009°50'0 0.0
2017-Oct-08 09:30N 44°06' E 009°50'3 6.3
2017-Oct-08 09:00N 44°03' E 009°50'1 2.2
2017-Oct-08 08:30N 44°04' E 009°51'2 4.9
2017-Oct-08 08:00N 44°06' E 009°50'  

Dump ship's entire track history